Time;durP1;ratioP1;P1;durP2;ratioP2;P2;SDS_P1;SDS_P2;PMS_P1;PMS_P2;Temp;Humidity;BMP_temperature;BMP_pressure;BME280_temperature;BME280_humidity;BME280_pressure;Samples;Min_cycle;Max_cycle;Signal;HPM_P1;HPM_P2
2022/01/09 00:01:11;;;;;;;4.00;2.47;;;;;;;;;;5076844;28;20463;-73
2022/01/09 00:03:39;;;;;;;2.90;2.00;;;;;;;;;;5076894;28;20472;-73
2022/01/09 00:06:10;;;;;;;3.20;2.60;;;;;;;;;;5076845;28;20459;-73
2022/01/09 00:08:40;;;;;;;3.00;2.20;;;;;;;;;;5077109;28;20456;-73
2022/01/09 00:11:07;;;;;;;9.30;3.10;;;;;;;;;;5077111;28;20543;-73
2022/01/09 00:13:35;;;;;;;4.90;1.90;;;;;;;;;;5076352;28;20471;-73
2022/01/09 00:16:03;;;;;;;16.37;2.27;;;;;;;;;;5077171;28;20795;-73
2022/01/09 00:18:32;;;;;;;4.83;2.70;;;;;;;;;;5075791;28;20515;-73
2022/01/09 00:21:06;;;;;;;3.20;2.03;;;;;;;;;;5076694;28;20467;-75
2022/01/09 00:23:34;;;;;;;3.37;2.17;;;;;;;;;;5077406;28;20467;-74
2022/01/09 00:26:02;;;;;;;2.90;1.83;;;;;;;;;;5075684;28;20457;-73
2022/01/09 00:28:30;;;;;;;4.30;2.80;;;;;;;;;;5077711;28;20476;-73
2022/01/09 00:30:58;;;;;;;4.33;2.77;;;;;;;;;;5075830;28;20947;-74
2022/01/09 00:33:26;;;;;;;5.00;3.10;;;;;;;;;;5076173;28;20475;-73
2022/01/09 00:35:59;;;;;;;6.10;4.30;;;;;;;;;;5075587;28;20578;-74
2022/01/09 00:38:27;;;;;;;2.50;1.57;;;;;;;;;;5076691;28;20485;-73
2022/01/09 00:40:54;;;;;;;4.30;1.23;;;;;;;;;;5076650;28;20449;-73
2022/01/09 00:43:22;;;;;;;3.23;2.43;;;;;;;;;;5076379;28;20479;-73
2022/01/09 00:45:50;;;;;;;6.10;2.63;;;;;;;;;;5075886;28;20546;-73
2022/01/09 00:48:17;;;;;;;4.13;2.50;;;;;;;;;;5075817;28;20558;-74
2022/01/09 00:50:45;;;;;;;8.23;2.40;;;;;;;;;;5075637;28;20464;-74
2022/01/09 00:53:20;;;;;;;5.33;2.43;;;;;;;;;;5076970;28;20456;-73
2022/01/09 00:55:48;;;;;;;3.30;2.50;;;;;;;;;;5076287;28;20468;-73
2022/01/09 00:58:16;;;;;;;6.03;2.50;;;;;;;;;;5077393;28;20847;-74
2022/01/09 01:00:44;;;;;;;6.90;3.30;;;;;;;;;;5080623;28;20534;-73
2022/01/09 01:03:11;;;;;;;3.30;1.90;;;;;;;;;;5079319;28;20550;-73
2022/01/09 01:05:39;;;;;;;4.17;2.17;;;;;;;;;;5079708;28;20464;-73
2022/01/09 01:08:07;;;;;;;7.83;2.13;;;;;;;;;;5079245;28;20460;-73
2022/01/09 01:10:36;;;;;;;3.80;2.20;;;;;;;;;;5079115;28;20661;-73
2022/01/09 01:13:04;;;;;;;3.27;2.90;;;;;;;;;;5081178;28;20514;-73
2022/01/09 01:15:32;;;;;;;3.43;1.63;;;;;;;;;;5081030;28;20767;-73
2022/01/09 01:17:59;;;;;;;4.43;2.20;;;;;;;;;;5080559;28;20457;-73
2022/01/09 01:20:28;;;;;;;3.93;2.30;;;;;;;;;;5080140;28;20444;-73
2022/01/09 01:22:58;;;;;;;2.40;1.43;;;;;;;;;;5080017;28;20503;-73
2022/01/09 01:25:26;;;;;;;2.43;1.73;;;;;;;;;;5079446;28;20973;-73
2022/01/09 01:27:55;;;;;;;3.63;2.70;;;;;;;;;;5080209;28;20456;-73
2022/01/09 01:30:23;;;;;;;3.93;2.60;;;;;;;;;;5079135;28;20489;-73
2022/01/09 01:32:51;;;;;;;3.80;2.53;;;;;;;;;;5079119;28;20510;-73
2022/01/09 01:35:18;;;;;;;4.93;2.37;;;;;;;;;;5079544;28;20488;-73
2022/01/09 01:37:46;;;;;;;5.23;2.90;;;;;;;;;;5078638;28;20452;-73
2022/01/09 01:40:15;;;;;;;3.70;2.03;;;;;;;;;;5079345;28;20492;-73
2022/01/09 01:42:43;;;;;;;8.50;3.30;;;;;;;;;;5079676;28;20456;-73
2022/01/09 01:45:12;;;;;;;4.30;2.73;;;;;;;;;;5078566;28;20487;-73
2022/01/09 01:47:40;;;;;;;2.80;2.33;;;;;;;;;;5078399;28;20467;-73
2022/01/09 01:50:11;;;;;;;3.70;2.43;;;;;;;;;;5079250;28;20752;-74
2022/01/09 01:52:42;;;;;;;7.03;2.10;;;;;;;;;;5078772;28;20518;-73
2022/01/09 01:55:11;;;;;;;3.50;2.63;;;;;;;;;;5078515;28;20529;-74
2022/01/09 01:57:40;;;;;;;3.63;2.43;;;;;;;;;;5078749;28;20460;-74
2022/01/09 02:00:13;;;;;;;6.50;2.60;;;;;;;;;;5079039;28;20495;-74
2022/01/09 02:02:41;;;;;;;6.10;2.13;;;;;;;;;;5079093;28;20471;-74
2022/01/09 02:05:12;;;;;;;6.17;1.93;;;;;;;;;;5078381;28;20517;-74
2022/01/09 02:07:41;;;;;;;9.13;5.23;;;;;;;;;;5079619;28;20463;-74
2022/01/09 02:10:10;;;;;;;3.47;1.87;;;;;;;;;;5077291;28;20527;-73
2022/01/09 02:12:40;;;;;;;3.73;2.30;;;;;;;;;;5078360;28;20475;-74
2022/01/09 02:15:22;;;;;;;4.27;2.20;;;;;;;;;;5078459;28;20955;-74
2022/01/09 02:17:51;;;;;;;5.13;2.80;;;;;;;;;;5077797;28;20525;-74
2022/01/09 02:20:23;;;;;;;3.90;2.70;;;;;;;;;;5078531;28;20743;-73
2022/01/09 02:22:51;;;;;;;6.80;2.60;;;;;;;;;;5078287;28;20464;-73
2022/01/09 02:25:19;;;;;;;2.77;1.50;;;;;;;;;;5077858;28;20452;-73
2022/01/09 02:27:46;;;;;;;4.57;3.10;;;;;;;;;;5077683;28;20975;-73
2022/01/09 02:30:14;;;;;;;4.27;2.07;;;;;;;;;;5077576;28;20471;-73
2022/01/09 02:32:42;;;;;;;3.83;2.20;;;;;;;;;;5077779;28;20805;-73
2022/01/09 02:35:13;;;;;;;4.63;3.10;;;;;;;;;;5077410;28;20479;-73
2022/01/09 02:37:42;;;;;;;3.57;2.20;;;;;;;;;;5077723;28;20464;-73
2022/01/09 02:40:25;;;;;;;5.20;2.17;;;;;;;;;;5077688;28;20493;-73
2022/01/09 02:42:53;;;;;;;2.63;1.80;;;;;;;;;;5077784;28;20464;-73
2022/01/09 02:45:23;;;;;;;4.47;3.00;;;;;;;;;;5079592;28;20849;-73
2022/01/09 02:47:55;;;;;;;6.60;3.27;;;;;;;;;;5077808;28;20465;-73
2022/01/09 02:50:33;;;;;;;3.83;2.47;;;;;;;;;;5076659;28;20448;-73
2022/01/09 02:53:13;;;;;;;4.00;2.93;;;;;;;;;;5078161;28;20476;-73
2022/01/09 02:55:44;;;;;;;2.60;1.53;;;;;;;;;;5076826;28;20533;-73
2022/01/09 02:58:12;;;;;;;2.27;1.40;;;;;;;;;;5077435;28;20466;-73
2022/01/09 03:00:40;;;;;;;5.73;2.20;;;;;;;;;;5076708;28;21029;-73
2022/01/09 03:03:08;;;;;;;3.40;1.80;;;;;;;;;;5077558;28;20464;-73
2022/01/09 03:05:35;;;;;;;4.23;2.40;;;;;;;;;;5077574;28;20456;-73
2022/01/09 03:08:05;;;;;;;4.70;2.20;;;;;;;;;;5077818;28;20463;-73
2022/01/09 03:10:32;;;;;;;6.13;2.37;;;;;;;;;;5076609;28;20480;-73
2022/01/09 03:13:00;;;;;;;4.03;2.50;;;;;;;;;;5078148;28;20479;-74
2022/01/09 03:15:28;;;;;;;4.90;1.30;;;;;;;;;;5077608;28;20474;-73
2022/01/09 03:17:55;;;;;;;11.60;2.57;;;;;;;;;;5077705;28;20469;-73
2022/01/09 03:20:24;;;;;;;3.77;2.60;;;;;;;;;;5077680;28;20487;-73
2022/01/09 03:22:51;;;;;;;2.60;1.73;;;;;;;;;;5077290;28;20469;-73
2022/01/09 03:25:21;;;;;;;3.33;1.90;;;;;;;;;;5077126;28;20463;-73
2022/01/09 03:27:49;;;;;;;4.50;2.67;;;;;;;;;;5077436;28;20452;-73
2022/01/09 03:30:17;;;;;;;5.47;2.10;;;;;;;;;;5076866;28;20464;-73
2022/01/09 03:32:45;;;;;;;2.93;2.17;;;;;;;;;;5077595;28;20764;-73
2022/01/09 03:35:14;;;;;;;5.73;3.23;;;;;;;;;;5077313;28;20533;-73
2022/01/09 03:37:42;;;;;;;3.23;2.03;;;;;;;;;;5076888;28;20515;-73
2022/01/09 03:40:11;;;;;;;4.23;2.40;;;;;;;;;;5076772;28;20476;-73
2022/01/09 03:42:40;;;;;;;2.93;1.40;;;;;;;;;;5077858;28;20475;-73
2022/01/09 03:45:09;;;;;;;2.70;1.73;;;;;;;;;;5077284;28;20517;-73
2022/01/09 03:47:37;;;;;;;3.27;2.27;;;;;;;;;;5077629;28;20482;-73
2022/01/09 03:50:04;;;;;;;3.43;1.90;;;;;;;;;;5076133;28;20456;-73
2022/01/09 03:52:33;;;;;;;4.87;2.57;;;;;;;;;;5063320;28;20866;-73
2022/01/09 03:55:01;;;;;;;2.70;2.03;;;;;;;;;;5057231;28;20869;-73
2022/01/09 03:57:29;;;;;;;3.70;2.10;;;;;;;;;;5056567;28;20488;-73
2022/01/09 03:59:58;;;;;;;5.57;2.37;;;;;;;;;;5062666;28;20490;-73
2022/01/09 04:02:25;;;;;;;2.30;1.57;;;;;;;;;;5077883;28;20452;-74
2022/01/09 04:04:53;;;;;;;4.20;2.60;;;;;;;;;;5075906;28;20507;-73
2022/01/09 04:07:21;;;;;;;3.73;1.77;;;;;;;;;;5077287;28;20474;-74
2022/01/09 04:09:49;;;;;;;3.20;1.90;;;;;;;;;;5078137;28;20456;-73
2022/01/09 04:12:19;;;;;;;3.40;2.43;;;;;;;;;;5076111;28;20488;-73
2022/01/09 04:14:47;;;;;;;3.93;2.43;;;;;;;;;;5066806;28;20457;-74
2022/01/09 04:17:22;;;;;;;5.07;2.03;;;;;;;;;;5057670;28;20470;-73
2022/01/09 04:19:50;;;;;;;3.20;1.80;;;;;;;;;;5056841;28;20588;-73
2022/01/09 04:22:18;;;;;;;3.77;2.07;;;;;;;;;;5062759;28;20464;-73
2022/01/09 04:24:45;;;;;;;3.30;1.93;;;;;;;;;;5077753;28;20453;-73
2022/01/09 04:27:13;;;;;;;5.97;2.40;;;;;;;;;;5076687;28;20482;-72
2022/01/09 04:29:41;;;;;;;3.73;2.10;;;;;;;;;;5077485;28;20472;-74
2022/01/09 04:32:12;;;;;;;2.83;2.27;;;;;;;;;;5077665;28;20460;-73
2022/01/09 04:34:41;;;;;;;5.90;3.20;;;;;;;;;;5080583;28;20453;-73
2022/01/09 04:37:08;;;;;;;5.00;2.07;;;;;;;;;;5080854;28;20464;-73
2022/01/09 04:39:36;;;;;;;4.70;1.90;;;;;;;;;;5079876;28;20494;-73
2022/01/09 04:42:04;;;;;;;3.30;2.53;;;;;;;;;;5080462;28;20468;-73
2022/01/09 04:44:31;;;;;;;3.43;2.27;;;;;;;;;;5080231;28;20453;-73
2022/01/09 04:47:04;;;;;;;3.97;2.17;;;;;;;;;;5079807;28;20464;-73
2022/01/09 04:49:37;;;;;;;5.47;2.10;;;;;;;;;;5080035;28;20452;-73
2022/01/09 04:52:10;;;;;;;3.93;2.53;;;;;;;;;;5080136;28;20455;-73
2022/01/09 04:54:37;;;;;;;3.63;2.60;;;;;;;;;;5078771;28;20468;-73
2022/01/09 04:57:06;;;;;;;5.10;2.23;;;;;;;;;;5080214;28;20479;-73
2022/01/09 04:59:33;;;;;;;3.40;2.97;;;;;;;;;;5079728;28;20484;-72
2022/01/09 05:02:01;;;;;;;8.57;3.20;;;;;;;;;;5079471;28;20464;-73
2022/01/09 05:04:29;;;;;;;3.57;1.67;;;;;;;;;;5079364;28;20468;-72
2022/01/09 05:06:57;;;;;;;5.13;2.80;;;;;;;;;;5079356;28;20464;-73
2022/01/09 05:09:26;;;;;;;3.60;2.20;;;;;;;;;;5080432;28;20491;-74
2022/01/09 05:11:53;;;;;;;5.07;2.93;;;;;;;;;;5079239;28;20531;-72
2022/01/09 05:14:21;;;;;;;5.70;2.77;;;;;;;;;;5080482;28;20460;-73
2022/01/09 05:16:50;;;;;;;4.23;2.67;;;;;;;;;;5079113;28;20856;-73
2022/01/09 05:19:20;;;;;;;4.80;2.30;;;;;;;;;;5079320;28;20502;-73
2022/01/09 05:21:48;;;;;;;4.17;3.10;;;;;;;;;;5079830;28;20716;-73
2022/01/09 05:24:17;;;;;;;4.20;2.40;;;;;;;;;;5078897;28;20479;-73
2022/01/09 05:26:46;;;;;;;4.43;2.87;;;;;;;;;;5079126;28;20547;-73
2022/01/09 05:29:13;;;;;;;5.67;3.43;;;;;;;;;;5079993;28;20804;-73
2022/01/09 05:31:41;;;;;;;4.70;2.90;;;;;;;;;;5078307;28;20887;-73
2022/01/09 05:34:09;;;;;;;5.23;3.17;;;;;;;;;;5079200;28;20488;-73
2022/01/09 05:36:37;;;;;;;5.60;2.83;;;;;;;;;;5079640;28;20543;-73
2022/01/09 05:39:05;;;;;;;4.80;3.17;;;;;;;;;;5079579;28;20492;-73
2022/01/09 05:41:39;;;;;;;4.47;3.33;;;;;;;;;;5078982;28;20491;-73
2022/01/09 05:44:09;;;;;;;6.20;2.90;;;;;;;;;;5079297;28;20455;-73
2022/01/09 05:46:37;;;;;;;2.90;2.23;;;;;;;;;;5079122;28;20550;-73
2022/01/09 05:49:05;;;;;;;5.87;3.73;;;;;;;;;;5079258;28;20452;-73
2022/01/09 05:51:33;;;;;;;9.00;4.70;;;;;;;;;;5078999;28;20532;-73
2022/01/09 05:54:00;;;;;;;4.63;3.23;;;;;;;;;;5078525;28;20464;-73
2022/01/09 05:56:28;;;;;;;5.33;3.70;;;;;;;;;;5078816;28;20468;-73
2022/01/09 05:58:56;;;;;;;4.40;2.90;;;;;;;;;;5079011;28;20448;-73
2022/01/09 06:01:25;;;;;;;5.67;5.07;;;;;;;;;;5079153;28;20550;-73
2022/01/09 06:03:52;;;;;;;8.30;4.20;;;;;;;;;;5079224;28;20453;-73
2022/01/09 06:06:20;;;;;;;4.67;3.60;;;;;;;;;;5078666;28;20490;-73
2022/01/09 06:08:48;;;;;;;4.70;3.00;;;;;;;;;;5078919;28;20507;-73
2022/01/09 06:11:16;;;;;;;5.30;3.53;;;;;;;;;;5079031;28;20472;-73
2022/01/09 06:13:44;;;;;;;6.17;3.20;;;;;;;;;;5077974;28;20453;-73
2022/01/09 06:16:12;;;;;;;6.30;4.17;;;;;;;;;;5078522;28;20539;-73
2022/01/09 06:18:41;;;;;;;5.20;3.50;;;;;;;;;;5078021;28;20457;-73
2022/01/09 06:21:09;;;;;;;7.00;5.43;;;;;;;;;;5078383;28;20647;-73
2022/01/09 06:23:36;;;;;;;5.23;4.10;;;;;;;;;;5077931;28;20484;-72
2022/01/09 06:26:04;;;;;;;5.93;3.90;;;;;;;;;;5078084;28;20449;-74
2022/01/09 06:28:32;;;;;;;3.37;2.70;;;;;;;;;;5079129;28;20460;-74
2022/01/09 06:31:00;;;;;;;6.97;5.57;;;;;;;;;;5077793;28;20480;-74
2022/01/09 06:33:27;;;;;;;3.60;3.00;;;;;;;;;;5078421;28;20449;-73
2022/01/09 06:35:56;;;;;;;7.57;4.80;;;;;;;;;;5077611;28;20861;-73
2022/01/09 06:38:24;;;;;;;7.93;4.33;;;;;;;;;;5077992;28;20456;-73
2022/01/09 06:40:52;;;;;;;6.23;4.50;;;;;;;;;;5077235;28;20935;-74
2022/01/09 06:43:19;;;;;;;5.50;4.37;;;;;;;;;;5078022;28;20667;-72
2022/01/09 06:45:47;;;;;;;5.77;5.17;;;;;;;;;;5077896;28;20539;-73
2022/01/09 06:48:14;;;;;;;8.10;4.13;;;;;;;;;;5077394;28;20468;-74
2022/01/09 06:50:42;;;;;;;9.40;4.83;;;;;;;;;;5077701;28;20459;-74
2022/01/09 06:53:11;;;;;;;7.07;4.33;;;;;;;;;;5077612;28;20736;-73
2022/01/09 06:55:39;;;;;;;9.07;5.20;;;;;;;;;;5076588;28;20475;-74
2022/01/09 06:58:06;;;;;;;6.07;4.77;;;;;;;;;;5077941;28;20455;-74
2022/01/09 07:00:34;;;;;;;8.40;5.17;;;;;;;;;;5077489;28;20488;-73
2022/01/09 07:03:01;;;;;;;7.73;5.10;;;;;;;;;;5078119;28;20548;-73
2022/01/09 07:05:29;;;;;;;7.50;4.97;;;;;;;;;;5077433;28;20514;-73
2022/01/09 07:07:57;;;;;;;4.97;3.47;;;;;;;;;;5077159;28;20465;-73
2022/01/09 07:10:26;;;;;;;7.67;5.30;;;;;;;;;;5077352;28;20526;-73
2022/01/09 07:12:54;;;;;;;7.27;5.77;;;;;;;;;;5076671;28;20546;-73
2022/01/09 07:15:22;;;;;;;8.47;3.60;;;;;;;;;;5076785;28;20464;-73
2022/01/09 07:17:49;;;;;;;12.87;5.80;;;;;;;;;;5077172;28;20790;-73
2022/01/09 07:20:17;;;;;;;8.50;5.17;;;;;;;;;;5077351;28;20611;-73
2022/01/09 07:22:45;;;;;;;5.40;4.10;;;;;;;;;;5077458;28;20456;-73
2022/01/09 07:25:13;;;;;;;6.60;4.63;;;;;;;;;;5077164;28;20460;-73
2022/01/09 07:27:42;;;;;;;11.77;5.57;;;;;;;;;;5077235;28;20864;-73
2022/01/09 07:30:10;;;;;;;9.63;6.70;;;;;;;;;;5077021;28;20460;-73
2022/01/09 07:32:40;;;;;;;10.90;5.73;;;;;;;;;;5076865;28;20465;-73
2022/01/09 07:35:08;;;;;;;6.57;4.90;;;;;;;;;;5074653;28;20744;-74
2022/01/09 07:37:38;;;;;;;8.20;6.20;;;;;;;;;;5076919;28;20514;-74
2022/01/09 07:40:07;;;;;;;6.23;4.90;;;;;;;;;;5074980;28;20551;-73
2022/01/09 07:42:34;;;;;;;7.40;5.30;;;;;;;;;;5077438;28;20556;-73
2022/01/09 07:45:06;;;;;;;7.80;5.17;;;;;;;;;;5076355;28;20795;-74
2022/01/09 07:47:34;;;;;;;8.10;4.97;;;;;;;;;;5076060;28;20474;-73
2022/01/09 07:50:02;;;;;;;4.77;3.90;;;;;;;;;;5077537;28;20517;-74
2022/01/09 07:52:30;;;;;;;6.40;4.90;;;;;;;;;;5076055;28;20787;-73
2022/01/09 07:54:57;;;;;;;5.10;3.63;;;;;;;;;;5076988;28;20448;-73
2022/01/09 07:57:25;;;;;;;6.33;5.27;;;;;;;;;;5076679;28;20500;-73
2022/01/09 07:59:56;;;;;;;8.83;5.87;;;;;;;;;;5076041;28;20467;-73
2022/01/09 08:02:26;;;;;;;8.20;5.30;;;;;;;;;;5076598;28;20484;-73
2022/01/09 08:04:56;;;;;;;9.40;6.50;;;;;;;;;;5076324;28;20514;-73
2022/01/09 08:07:24;;;;;;;8.57;5.80;;;;;;;;;;5077433;28;20472;-73
2022/01/09 08:09:52;;;;;;;7.13;5.30;;;;;;;;;;5081433;28;20914;-73
2022/01/09 08:12:20;;;;;;;9.30;6.63;;;;;;;;;;5083701;28;20471;-74
2022/01/09 08:14:47;;;;;;;11.60;8.03;;;;;;;;;;5080713;28;20496;-73
2022/01/09 08:17:15;;;;;;;10.90;7.33;;;;;;;;;;5080840;28;20459;-73
2022/01/09 08:19:50;;;;;;;10.67;6.57;;;;;;;;;;5080895;28;20471;-73
2022/01/09 08:22:18;;;;;;;9.43;6.53;;;;;;;;;;5080807;28;20488;-73
2022/01/09 08:24:45;;;;;;;10.43;7.67;;;;;;;;;;5079834;28;20497;-73
2022/01/09 08:27:18;;;;;;;7.53;6.07;;;;;;;;;;5079099;28;20553;-73
2022/01/09 08:29:49;;;;;;;8.13;6.47;;;;;;;;;;5080341;28;20494;-73
2022/01/09 08:32:17;;;;;;;10.50;6.80;;;;;;;;;;5080275;28;20462;-73
2022/01/09 08:34:47;;;;;;;10.03;6.50;;;;;;;;;;5079837;28;20457;-73
2022/01/09 08:37:15;;;;;;;8.03;6.17;;;;;;;;;;5079493;28;20532;-73
2022/01/09 08:39:46;;;;;;;8.87;5.70;;;;;;;;;;5080484;28;20706;-74
2022/01/09 08:42:14;;;;;;;8.83;5.93;;;;;;;;;;5080610;28;20487;-73
2022/01/09 08:44:41;;;;;;;18.90;8.80;;;;;;;;;;5079720;28;20527;-73
2022/01/09 08:47:09;;;;;;;12.43;5.73;;;;;;;;;;5080108;28;20452;-73
2022/01/09 08:49:37;;;;;;;8.87;6.67;;;;;;;;;;5081048;28;20488;-72
2022/01/09 08:52:07;;;;;;;12.80;7.20;;;;;;;;;;5079810;28;20721;-72
2022/01/09 08:54:35;;;;;;;7.17;5.50;;;;;;;;;;5080335;28;20836;-73
2022/01/09 08:57:03;;;;;;;12.07;8.43;;;;;;;;;;5071815;28;20449;-72
2022/01/09 08:59:30;;;;;;;14.83;8.10;;;;;;;;;;5078456;28;20856;-72
2022/01/09 09:01:58;;;;;;;13.13;6.93;;;;;;;;;;5079621;28;20484;-74
2022/01/09 09:04:26;;;;;;;11.17;7.07;;;;;;;;;;5079175;28;20497;-73
2022/01/09 09:06:53;;;;;;;13.63;8.37;;;;;;;;;;5078929;28;20491;-73
2022/01/09 09:09:26;;;;;;;12.20;8.80;;;;;;;;;;5080254;28;20461;-73
2022/01/09 09:11:54;;;;;;;9.57;8.00;;;;;;;;;;5078927;28;20479;-73
2022/01/09 09:14:22;;;;;;;12.57;8.53;;;;;;;;;;5079805;28;20508;-73
2022/01/09 09:16:49;;;;;;;10.00;6.67;;;;;;;;;;5078474;28;20459;-72
2022/01/09 09:19:17;;;;;;;13.33;7.37;;;;;;;;;;5078979;28;20460;-72
2022/01/09 09:21:47;;;;;;;13.10;8.27;;;;;;;;;;5079647;28;20504;-72
2022/01/09 09:24:15;;;;;;;9.30;6.33;;;;;;;;;;5078933;28;20460;-72
2022/01/09 09:26:44;;;;;;;12.67;8.00;;;;;;;;;;5079310;28;20455;-72
2022/01/09 09:29:11;;;;;;;12.37;7.80;;;;;;;;;;5079074;28;20779;-72
2022/01/09 09:31:42;;;;;;;11.30;8.03;;;;;;;;;;5078598;28;20465;-72
2022/01/09 09:34:09;;;;;;;11.63;7.90;;;;;;;;;;5075923;28;20922;-72
2022/01/09 09:36:38;;;;;;;11.70;7.20;;;;;;;;;;5078384;28;21049;-73
2022/01/09 09:39:08;;;;;;;10.60;7.93;;;;;;;;;;5078536;28;20452;-73
2022/01/09 09:41:37;;;;;;;15.13;9.77;;;;;;;;;;5077500;28;20607;-72
2022/01/09 09:44:09;;;;;;;12.53;8.97;;;;;;;;;;5077626;28;20460;-73
2022/01/09 09:46:39;;;;;;;12.33;7.77;;;;;;;;;;5080185;28;20465;-72
2022/01/09 09:49:07;;;;;;;10.73;7.60;;;;;;;;;;5078873;28;20456;-73
2022/01/09 09:51:35;;;;;;;14.40;9.43;;;;;;;;;;5078432;28;20449;-73
2022/01/09 09:54:04;;;;;;;11.83;6.70;;;;;;;;;;5078700;28;21061;-73
2022/01/09 09:56:31;;;;;;;13.30;8.27;;;;;;;;;;5079495;28;20579;-74
2022/01/09 09:59:00;;;;;;;11.60;8.10;;;;;;;;;;5080214;28;20845;-73
2022/01/09 10:01:37;;;;;;;8.23;6.23;;;;;;;;;;5078856;28;20492;-73
2022/01/09 10:04:07;;;;;;;12.30;7.80;;;;;;;;;;5080260;28;20456;-74
2022/01/09 10:06:40;;;;;;;15.03;9.13;;;;;;;;;;5077886;28;20476;-72
2022/01/09 10:09:09;;;;;;;11.70;8.50;;;;;;;;;;5078485;28;20734;-73
2022/01/09 10:11:48;;;;;;;13.30;8.90;;;;;;;;;;5077560;28;20532;-73
2022/01/09 10:14:16;;;;;;;13.63;7.97;;;;;;;;;;5078225;28;20463;-72
2022/01/09 10:17:07;;;;;;;9.73;6.50;;;;;;;;;;5077663;28;20485;-73
2022/01/09 10:19:45;;;;;;;20.47;7.93;;;;;;;;;;5077355;28;20694;-73
2022/01/09 10:22:29;;;;;;;10.23;7.17;;;;;;;;;;5078441;28;20500;-73
2022/01/09 10:24:57;;;;;;;12.50;8.70;;;;;;;;;;5076083;28;20535;-73
2022/01/09 10:27:29;;;;;;;12.50;9.50;;;;;;;;;;5077442;28;20720;-73
2022/01/09 10:29:57;;;;;;;11.37;7.50;;;;;;;;;;5077159;28;20476;-73
2022/01/09 10:32:30;;;;;;;12.57;8.80;;;;;;;;;;5078488;28;20457;-73
2022/01/09 10:35:08;;;;;;;8.73;6.13;;;;;;;;;;5078277;28;20460;-73
2022/01/09 10:37:36;;;;;;;9.87;7.00;;;;;;;;;;5079052;28;20448;-73
2022/01/09 10:40:05;;;;;;;10.87;7.27;;;;;;;;;;5078835;28;20531;-73
2022/01/09 10:42:33;;;;;;;10.43;7.53;;;;;;;;;;5077341;28;20492;-73
2022/01/09 10:45:16;;;;;;;10.93;8.20;;;;;;;;;;5078375;28;20927;-73
2022/01/09 10:47:46;;;;;;;10.87;7.70;;;;;;;;;;5077892;28;20460;-73
2022/01/09 10:50:24;;;;;;;10.90;7.10;;;;;;;;;;5077599;28;20456;-73
2022/01/09 10:52:52;;;;;;;7.90;6.57;;;;;;;;;;5077408;28;20453;-73
2022/01/09 10:55:19;;;;;;;9.37;7.27;;;;;;;;;;5077006;28;20461;-73
2022/01/09 10:57:47;;;;;;;12.77;6.47;;;;;;;;;;5077170;28;20444;-73
2022/01/09 11:00:16;;;;;;;7.17;5.00;;;;;;;;;;5076897;28;20459;-73
2022/01/09 11:02:45;;;;;;;9.07;6.00;;;;;;;;;;5076140;28;20488;-73
2022/01/09 11:05:13;;;;;;;8.97;6.67;;;;;;;;;;5077290;28;20461;-73
2022/01/09 11:07:42;;;;;;;10.50;6.17;;;;;;;;;;5078597;28;20555;-73
2022/01/09 11:10:11;;;;;;;11.80;4.60;;;;;;;;;;5076755;28;20555;-73
2022/01/09 11:12:46;;;;;;;6.90;5.27;;;;;;;;;;5077406;28;20868;-73
2022/01/09 11:15:21;;;;;;;8.57;5.33;;;;;;;;;;5075663;28;20464;-73
2022/01/09 11:17:51;;;;;;;5.43;4.60;;;;;;;;;;5075858;28;20456;-73
2022/01/09 11:20:20;;;;;;;7.73;4.87;;;;;;;;;;5076574;28;20476;-73
2022/01/09 11:22:48;;;;;;;7.27;4.80;;;;;;;;;;5076112;28;20479;-73
2022/01/09 11:25:21;;;;;;;8.07;5.47;;;;;;;;;;5077119;28;20525;-74
2022/01/09 11:27:54;;;;;;;7.37;4.83;;;;;;;;;;5077203;28;20460;-74
2022/01/09 11:30:23;;;;;;;7.33;5.97;;;;;;;;;;5075881;28;20445;-73
2022/01/09 11:33:08;;;;;;;7.93;5.00;;;;;;;;;;5076747;28;20452;-73
2022/01/09 11:35:40;;;;;;;7.33;4.70;;;;;;;;;;5076548;28;20517;-73
2022/01/09 11:38:14;;;;;;;6.67;4.40;;;;;;;;;;5076802;28;20969;-73
2022/01/09 11:40:41;;;;;;;7.90;4.97;;;;;;;;;;5077220;28;20486;-73
2022/01/09 11:43:14;;;;;;;6.97;5.30;;;;;;;;;;5075458;28;20520;-74
2022/01/09 11:45:51;;;;;;;6.70;4.30;;;;;;;;;;5077160;28;20514;-74
2022/01/09 11:48:22;;;;;;;6.20;4.80;;;;;;;;;;5076700;28;20832;-73
2022/01/09 11:51:09;;;;;;;8.37;4.97;;;;;;;;;;5075949;28;20907;-73
2022/01/09 11:53:51;;;;;;;6.60;4.57;;;;;;;;;;5076821;28;20502;-72
2022/01/09 11:56:36;;;;;;;8.43;5.87;;;;;;;;;;5076081;28;20468;-72
2022/01/09 11:59:23;;;;;;;3.80;3.30;;;;;;;;;;5076479;28;20456;-72
2022/01/09 12:01:52;;;;;;;6.03;4.67;;;;;;;;;;5073904;28;20734;-73
2022/01/09 12:04:39;;;;;;;5.30;3.80;;;;;;;;;;5075830;28;20480;-73
2022/01/09 12:07:08;;;;;;;5.67;3.87;;;;;;;;;;5076076;28;20521;-72
2022/01/09 12:09:37;;;;;;;6.33;4.20;;;;;;;;;;5075653;28;20475;-72
2022/01/09 12:12:15;;;;;;;4.57;3.73;;;;;;;;;;5075811;28;20460;-72
2022/01/09 12:14:54;;;;;;;4.70;3.10;;;;;;;;;;5076334;28;20464;-72
2022/01/09 12:17:43;;;;;;;6.20;4.20;;;;;;;;;;5076576;28;20460;-73
2022/01/09 12:20:28;;;;;;;5.67;4.07;;;;;;;;;;5070944;28;20488;-73
2022/01/09 12:23:07;;;;;;;6.73;4.63;;;;;;;;;;5076572;28;21163;-73
2022/01/09 12:25:45;;;;;;;6.00;4.53;;;;;;;;;;5076088;28;20464;-73
2022/01/09 12:28:15;;;;;;;3.30;2.90;;;;;;;;;;5076184;28;20466;-73
2022/01/09 12:30:52;;;;;;;7.07;3.67;;;;;;;;;;5077253;28;20579;-73
2022/01/09 12:33:38;;;;;;;6.23;3.73;;;;;;;;;;5067368;28;20465;-73
2022/01/09 12:36:10;;;;;;;5.77;3.47;;;;;;;;;;5074461;28;20462;-73
2022/01/09 12:38:42;;;;;;;7.37;5.10;;;;;;;;;;5076359;28;20468;-73
2022/01/09 12:41:12;;;;;;;7.00;3.50;;;;;;;;;;5078241;28;20460;-73
2022/01/09 12:43:41;;;;;;;5.63;3.53;;;;;;;;;;5076280;28;20491;-73
2022/01/09 12:46:12;;;;;;;5.87;4.13;;;;;;;;;;5076355;28;20459;-73
2022/01/09 12:48:41;;;;;;;3.83;2.90;;;;;;;;;;5076309;28;20449;-73
2022/01/09 12:51:10;;;;;;;4.97;3.63;;;;;;;;;;5075621;28;20464;-72
2022/01/09 12:53:50;;;;;;;6.37;4.23;;;;;;;;;;5078173;28;20491;-72
2022/01/09 12:56:19;;;;;;;7.37;4.63;;;;;;;;;;5079777;28;20502;-73
2022/01/09 12:58:48;;;;;;;6.37;4.07;;;;;;;;;;5079990;28;20457;-73
2022/01/09 13:01:20;;;;;;;6.47;4.00;;;;;;;;;;5080665;28;20452;-74
2022/01/09 13:03:53;;;;;;;5.63;3.27;;;;;;;;;;5081079;28;20488;-74
2022/01/09 13:06:23;;;;;;;8.27;5.07;;;;;;;;;;5079785;28;20460;-74
2022/01/09 13:08:54;;;;;;;7.87;3.87;;;;;;;;;;5079002;28;20468;-74
2022/01/09 13:11:24;;;;;;;7.37;4.30;;;;;;;;;;5080620;28;20895;-73
2022/01/09 13:13:52;;;;;;;8.20;4.33;;;;;;;;;;5079884;28;20468;-73
2022/01/09 13:16:27;;;;;;;8.00;3.57;;;;;;;;;;5079694;28;20453;-73
2022/01/09 13:18:59;;;;;;;4.67;3.53;;;;;;;;;;5079886;28;20475;-73
2022/01/09 13:21:28;;;;;;;5.53;3.27;;;;;;;;;;5079367;28;20456;-73
2022/01/09 13:24:07;;;;;;;6.17;3.43;;;;;;;;;;5079290;28;20877;-74
2022/01/09 13:26:39;;;;;;;7.13;3.80;;;;;;;;;;5075639;28;20757;-74
2022/01/09 13:29:08;;;;;;;4.23;2.60;;;;;;;;;;5078688;28;20503;-74
2022/01/09 13:31:37;;;;;;;10.03;4.20;;;;;;;;;;5078689;28;20527;-73
2022/01/09 13:34:06;;;;;;;11.87;4.90;;;;;;;;;;5078773;28;20816;-73
2022/01/09 13:36:38;;;;;;;8.80;4.30;;;;;;;;;;5075190;28;20461;-73
2022/01/09 13:39:08;;;;;;;7.30;3.20;;;;;;;;;;5072246;28;20460;-73
2022/01/09 13:41:40;;;;;;;6.53;2.67;;;;;;;;;;5072188;28;20457;-73
2022/01/09 13:44:08;;;;;;;3.87;2.33;;;;;;;;;;5080952;28;20491;-73
2022/01/09 13:46:36;;;;;;;4.23;2.27;;;;;;;;;;5077389;28;20503;-73
2022/01/09 13:49:11;;;;;;;10.90;2.40;;;;;;;;;;5078736;28;20449;-73
2022/01/09 13:51:40;;;;;;;3.60;2.33;;;;;;;;;;5079428;28;20956;-73
2022/01/09 13:54:14;;;;;;;6.93;2.60;;;;;;;;;;5077849;28;20551;-73
2022/01/09 13:56:45;;;;;;;3.83;1.77;;;;;;;;;;5078853;28;20864;-72
2022/01/09 13:59:13;;;;;;;6.37;2.87;;;;;;;;;;5074239;28;20496;-73
2022/01/09 14:01:49;;;;;;;9.80;2.60;;;;;;;;;;5058563;28;20467;-73
2022/01/09 14:04:20;;;;;;;5.53;3.07;;;;;;;;;;5059183;28;20489;-72
2022/01/09 14:06:57;;;;;;;5.57;1.73;;;;;;;;;;5060437;28;20464;-72
2022/01/09 14:09:32;;;;;;;6.63;3.23;;;;;;;;;;5071380;28;20448;-72
2022/01/09 14:12:02;;;;;;;4.57;3.50;;;;;;;;;;5078467;28;20452;-74
2022/01/09 14:14:33;;;;;;;6.33;2.50;;;;;;;;;;5079684;28;20456;-72
2022/01/09 14:17:02;;;;;;;5.50;2.80;;;;;;;;;;5077119;28;20463;-72
2022/01/09 14:19:52;;;;;;;5.57;3.23;;;;;;;;;;5078571;28;20464;-73
2022/01/09 14:22:20;;;;;;;7.67;3.07;;;;;;;;;;5078669;28;20467;-72
2022/01/09 14:25:05;;;;;;;4.70;2.43;;;;;;;;;;5078145;28;20967;-73
2022/01/09 14:27:34;;;;;;;7.97;4.10;;;;;;;;;;5078528;28;20460;-72
2022/01/09 14:30:02;;;;;;;4.77;2.70;;;;;;;;;;5077676;28;20453;-73
2022/01/09 14:32:29;;;;;;;3.60;1.90;;;;;;;;;;5078546;28;20465;-72
2022/01/09 14:35:03;;;;;;;7.90;4.17;;;;;;;;;;5081203;28;20513;-73
2022/01/09 14:37:35;;;;;;;5.83;2.67;;;;;;;;;;5080222;28;20465;-74
2022/01/09 14:42:57;;;;;;;5.47;2.27;;;;;;;;;;5078348;28;20472;-72
2022/01/09 14:45:37;;;;;;;3.17;1.47;;;;;;;;;;5083435;28;20479;-73
2022/01/09 14:54:06;;;;;;;5.93;2.70;;;;;;;;;;5081776;28;20499;-73
2022/01/09 14:56:37;;;;;;;7.93;3.50;;;;;;;;;;5080992;28;20498;-72
2022/01/09 14:59:14;;;;;;;8.90;3.23;;;;;;;;;;5079726;28;20522;-73
2022/01/09 15:01:50;;;;;;;11.47;3.00;;;;;;;;;;5081140;28;20490;-73
2022/01/09 15:04:18;;;;;;;4.40;1.87;;;;;;;;;;5079917;28;20480;-73
2022/01/09 15:06:46;;;;;;;6.50;2.47;;;;;;;;;;5078046;28;20515;-73